Time;durP1;ratioP1;P1;durP2;ratioP2;P2;SDS_P1;SDS_P2;PMS_P1;PMS_P2;Temp;Humidity;BMP_temperature;BMP_pressure;BME280_temperature;BME280_humidity;BME280_pressure;Samples;Min_cycle;Max_cycle;Signal;HPM_P1;HPM_P2
2021/06/12 00:01:40;;;;;;;9.75;8.20;;;;;;;17.33;71.70;95693.94;5034163;28;20037;-69
2021/06/12 00:04:06;;;;;;;8.02;7.43;;;;;;;17.35;72.03;95696.28;5033969;28;20137;-69
2021/06/12 00:06:31;;;;;;;7.93;7.32;;;;;;;17.40;72.06;95707.66;5031361;28;20048;-69
2021/06/12 00:08:57;;;;;;;8.43;7.63;;;;;;;17.37;71.83;95697.56;5033062;28;20456;-68
2021/06/12 00:11:22;;;;;;;9.10;8.40;;;;;;;17.39;72.00;95699.91;4994618;28;20045;-68
2021/06/12 00:13:47;;;;;;;8.15;7.35;;;;;;;17.29;71.98;95686.88;4992455;28;20845;-69
2021/06/12 00:16:13;;;;;;;8.80;8.13;;;;;;;17.26;72.09;95684.88;5009751;28;20042;-68
2021/06/12 00:18:38;;;;;;;8.25;7.70;;;;;;;17.27;72.22;95689.91;5008544;28;20065;-69
2021/06/12 00:21:04;;;;;;;9.18;8.20;;;;;;;17.33;72.12;95699.31;5012971;28;20030;-68
2021/06/12 00:23:29;;;;;;;8.75;7.95;;;;;;;17.25;72.13;95691.34;5030306;28;20058;-68
2021/06/12 00:25:55;;;;;;;9.10;8.30;;;;;;;17.28;72.29;95693.38;5030681;28;20037;-68
2021/06/12 00:28:20;;;;;;;7.97;7.40;;;;;;;17.27;72.24;95691.81;5030141;28;20096;-68
2021/06/12 00:30:46;;;;;;;7.53;7.03;;;;;;;17.29;71.83;95693.03;5007058;28;20137;-68
2021/06/12 00:33:11;;;;;;;7.30;6.80;;;;;;;17.25;72.31;95692.16;5011243;28;20038;-68
2021/06/12 00:35:37;;;;;;;7.70;7.00;;;;;;;17.11;72.39;95675.53;5032483;28;20029;-68
2021/06/12 00:38:03;;;;;;;8.55;7.50;;;;;;;17.12;72.13;95680.56;5012647;28;20480;-68
2021/06/12 00:40:28;;;;;;;7.40;6.63;;;;;;;17.23;72.40;95694.38;5030500;28;20600;-68
2021/06/12 00:42:53;;;;;;;7.88;7.22;;;;;;;17.12;71.96;95682.47;5028155;28;20049;-69
2021/06/12 00:45:21;;;;;;;8.20;7.57;;;;;;;17.23;72.33;95696.28;5030271;28;20025;-68
2021/06/12 00:47:48;;;;;;;8.30;7.53;;;;;;;17.22;72.15;95694.72;5032150;28;20095;-69
2021/06/12 00:50:16;;;;;;;7.13;6.43;;;;;;;17.22;72.15;95698.19;5030321;28;20095;-68
2021/06/12 00:52:41;;;;;;;7.70;7.05;;;;;;;17.22;72.13;95702.78;5029899;28;20124;-68
2021/06/12 00:55:08;;;;;;;7.50;6.90;;;;;;;17.19;71.93;95692.69;5030277;28;20120;-68
2021/06/12 00:57:35;;;;;;;7.63;7.00;;;;;;;17.24;71.93;95700.53;5029670;28;20076;-68
2021/06/12 01:00:01;;;;;;;6.70;6.25;;;;;;;17.24;71.85;95693.25;5031706;28;20403;-68
2021/06/12 01:02:27;;;;;;;7.28;6.70;;;;;;;17.19;72.03;95688.09;5029675;28;20045;-68
2021/06/12 01:04:52;;;;;;;7.38;6.80;;;;;;;17.14;72.15;95678.31;5025597;28;20459;-68
2021/06/12 01:07:18;;;;;;;7.07;6.55;;;;;;;17.18;72.08;95683.84;5010086;28;20407;-68
2021/06/12 01:09:43;;;;;;;6.93;6.43;;;;;;;17.29;72.12;95689.56;5025427;28;20097;-68
2021/06/12 01:13:02;;;;;;;7.70;7.00;;;;;;;17.33;72.06;95685.88;5010334;28;20033;-68
2021/06/12 01:15:36;;;;;;;6.45;5.95;;;;;;;17.36;71.82;95693.28;5001578;28;20077;-69
2021/06/12 01:18:06;;;;;;;7.40;6.70;;;;;;;17.37;71.78;95697.56;5029812;28;20573;-68
2021/06/12 01:20:35;;;;;;;7.13;6.22;;;;;;;17.43;71.86;95692.75;5030355;28;20037;-68
2021/06/12 01:23:09;;;;;;;7.15;6.65;;;;;;;17.46;71.70;95692.09;5011360;28;20044;-69
2021/06/12 01:25:37;;;;;;;6.88;6.38;;;;;;;17.47;71.64;95688.28;5029673;28;20046;-68
2021/06/12 01:28:40;;;;;;;8.13;7.43;;;;;;;17.47;71.49;95690.97;5023996;28;20573;-68
2021/06/12 01:31:05;;;;;;;;;;;;;;;17.44;71.48;95688.94;5010318;28;20061;-69
2021/06/12 01:33:32;;;;;;;7.95;6.97;;;;;;;17.41;71.88;95686.91;5012821;28;20440;-68
2021/06/12 01:36:06;;;;;;;7.18;6.53;;;;;;;17.31;71.73;95673.91;5013579;28;20032;-69
2021/06/12 01:38:35;;;;;;;8.13;6.72;;;;;;;17.38;72.17;95690.25;5012102;28;20052;-69
2021/06/12 01:41:04;;;;;;;7.28;6.78;;;;;;;17.32;71.92;95678.16;5013553;28;20089;-68
2021/06/12 01:43:32;;;;;;;7.60;7.00;;;;;;;17.34;71.85;95686.66;5008532;28;20070;-68
2021/06/12 01:45:58;;;;;;;7.40;6.88;;;;;;;17.22;72.09;95662.47;5016661;28;20026;-68
2021/06/12 01:48:24;;;;;;;8.00;7.30;;;;;;;17.29;72.40;95679.59;5028839;28;20053;-68
2021/06/12 01:50:50;;;;;;;7.57;6.90;;;;;;;17.20;72.54;95673.56;5013397;28;20033;-68
2021/06/12 01:53:22;;;;;;;7.47;6.72;;;;;;;17.13;72.60;95671.38;5028788;28;20115;-69
2021/06/12 01:55:48;;;;;;;7.97;7.38;;;;;;;17.04;72.87;95662.63;5028988;28;20065;-69
2021/06/12 01:58:22;;;;;;;7.88;7.28;;;;;;;17.13;73.05;95673.28;5028499;28;20037;-68
2021/06/12 02:00:48;;;;;;;8.40;7.70;;;;;;;16.96;73.40;95657.34;5028672;28;20124;-69
2021/06/12 02:03:15;;;;;;;7.75;7.25;;;;;;;17.02;73.72;95659.50;5010823;28;20499;-69
2021/06/12 02:05:41;;;;;;;7.15;6.63;;;;;;;17.07;73.94;95674.63;5029547;28;20478;-70
2021/06/12 02:08:09;;;;;;;7.97;7.38;;;;;;;17.05;73.90;95674.97;5028923;28;20088;-69
2021/06/12 02:10:35;;;;;;;7.80;7.30;;;;;;;16.94;73.74;95657.69;5028865;28;20045;-68
2021/06/12 02:13:01;;;;;;;7.18;6.68;;;;;;;16.93;73.83;95666.84;5026564;28;20400;-69
2021/06/12 02:15:29;;;;;;;7.95;7.25;;;;;;;17.02;73.90;95672.16;5028580;28;20068;-68
2021/06/12 02:18:07;;;;;;;8.10;7.38;;;;;;;17.00;74.08;95669.00;5012847;28;20021;-69
2021/06/12 02:20:34;;;;;;;7.72;7.22;;;;;;;16.89;74.00;95656.00;5028923;28;20037;-68
2021/06/12 02:23:02;;;;;;;7.90;7.10;;;;;;;16.96;74.18;95671.56;5007144;28;20748;-69
2021/06/12 02:25:28;;;;;;;8.27;7.68;;;;;;;16.95;74.32;95675.38;5008119;28;20056;-68
2021/06/12 02:27:56;;;;;;;7.72;7.03;;;;;;;16.95;74.48;95658.47;5013744;28;20515;-68
2021/06/12 02:30:26;;;;;;;8.00;7.25;;;;;;;16.93;74.18;95660.69;5008014;28;20018;-68
2021/06/12 02:32:56;;;;;;;8.15;7.55;;;;;;;16.91;74.36;95663.72;5010228;28;20038;-69
2021/06/12 02:35:21;;;;;;;7.90;7.20;;;;;;;16.88;74.74;95670.53;5008788;28;20060;-69
2021/06/12 02:37:47;;;;;;;7.60;7.03;;;;;;;16.90;74.44;95664.84;5026907;28;20043;-68
2021/06/12 02:40:13;;;;;;;7.75;6.95;;;;;;;16.81;74.76;95653.38;5028323;28;20041;-68
2021/06/12 02:42:39;;;;;;;8.45;7.75;;;;;;;16.81;74.57;95653.38;5009925;28;20033;-68
2021/06/12 02:45:07;;;;;;;8.25;7.65;;;;;;;16.87;74.49;95660.13;5008679;28;20033;-67
2021/06/12 02:47:41;;;;;;;7.93;7.20;;;;;;;16.78;74.42;95645.97;5010213;28;20480;-68
2021/06/12 02:50:08;;;;;;;7.40;6.80;;;;;;;16.84;74.23;95664.28;5025155;28;20045;-68
2021/06/12 02:52:35;;;;;;;8.20;7.60;;;;;;;16.79;74.40;95648.34;5015599;28;20046;-68
2021/06/12 02:55:05;;;;;;;8.07;7.47;;;;;;;16.82;74.12;95654.94;5008277;28;20042;-68
2021/06/12 02:57:33;;;;;;;7.60;6.90;;;;;;;16.81;74.20;95662.22;5008336;28;20129;-68
2021/06/12 02:59:59;;;;;;;8.18;7.57;;;;;;;16.75;74.09;95657.41;5009762;28;20396;-68
2021/06/12 03:02:25;;;;;;;7.97;7.38;;;;;;;16.79;74.17;95667.16;5008068;28;20592;-68
2021/06/12 03:04:52;;;;;;;7.60;7.10;;;;;;;16.73;74.48;95652.34;5008416;28;20100;-68
2021/06/12 03:07:19;;;;;;;7.45;6.85;;;;;;;16.77;74.16;95668.59;5008370;28;20038;-68
2021/06/12 03:09:44;;;;;;;6.93;6.32;;;;;;;16.75;74.20;95666.25;5008220;28;20125;-68
2021/06/12 03:12:11;;;;;;;8.15;7.55;;;;;;;16.76;74.15;95664.34;5008009;28;20106;-68
2021/06/12 03:14:39;;;;;;;7.55;6.57;;;;;;;16.71;74.13;95657.25;5009677;28;20450;-68
2021/06/12 03:17:06;;;;;;;7.47;6.97;;;;;;;16.76;74.22;95667.03;5006620;28;20034;-69
2021/06/12 03:19:33;;;;;;;7.47;6.90;;;;;;;16.69;74.30;95653.31;5008412;28;20101;-68
2021/06/12 03:22:00;;;;;;;7.22;6.68;;;;;;;16.65;74.20;95645.13;5015353;28;20048;-67
2021/06/12 03:24:27;;;;;;;7.63;7.13;;;;;;;16.81;74.23;95666.81;5024723;28;28223;-68
2021/06/12 03:26:53;;;;;;;7.10;6.60;;;;;;;16.74;74.14;95648.56;5009920;28;20014;-68
2021/06/12 03:29:18;;;;;;;7.35;6.68;;;;;;;16.84;74.24;95656.22;4991558;28;20064;-68
2021/06/12 03:31:44;;;;;;;7.97;6.95;;;;;;;16.91;74.12;95658.34;5007909;28;20365;-68
2021/06/12 03:34:09;;;;;;;7.35;6.75;;;;;;;16.96;74.10;95658.13;5007838;28;20070;-68
2021/06/12 03:36:35;;;;;;;7.28;6.72;;;;;;;16.98;73.63;95649.72;5009827;28;20048;-67
2021/06/12 03:39:01;;;;;;;6.38;5.95;;;;;;;17.02;73.79;95653.34;5029758;28;20037;-68
2021/06/12 03:41:27;;;;;;;6.70;6.15;;;;;;;17.17;73.08;95668.03;5010165;28;20042;-68
2021/06/12 03:43:52;;;;;;;6.28;5.70;;;;;;;17.24;72.77;95671.75;5010971;28;20041;-68
2021/06/12 03:46:19;;;;;;;7.47;5.80;;;;;;;17.22;72.32;95657.06;5011722;28;20045;-68
2021/06/12 03:48:48;;;;;;;6.32;5.72;;;;;;;17.36;71.87;95666.41;5010543;28;20117;-68
2021/06/12 03:51:15;;;;;;;6.05;5.63;;;;;;;17.45;71.42;95668.97;5011659;28;20053;-67
2021/06/12 03:53:44;;;;;;;5.63;5.22;;;;;;;17.51;71.09;95666.88;5013104;28;20462;-67
2021/06/12 03:56:15;;;;;;;6.28;5.57;;;;;;;17.62;70.83;95674.16;5011620;28;20041;-68
2021/06/12 03:58:43;;;;;;;6.35;5.85;;;;;;;17.73;70.22;95679.13;5011299;28;20439;-67
2021/06/12 04:01:12;;;;;;;5.68;5.07;;;;;;;17.78;69.76;95668.94;5011420;28;20034;-68
2021/06/12 04:03:38;;;;;;;6.88;5.18;;;;;;;18.07;68.97;95670.59;5011142;28;20113;-68
2021/06/12 04:06:04;;;;;;;4.82;4.53;;;;;;;18.44;67.85;95670.53;5012908;28;20109;-68
2021/06/12 04:08:29;;;;;;;4.63;4.32;;;;;;;18.83;66.53;95679.72;5010595;28;20120;-70
2021/06/12 04:10:54;;;;;;;5.13;4.82;;;;;;;19.09;65.28;95663.13;5011550;28;20041;-69
2021/06/12 04:13:20;;;;;;;4.75;4.20;;;;;;;19.42;64.23;95670.88;5010575;28;20034;-69
2021/06/12 04:15:45;;;;;;;4.47;4.18;;;;;;;19.74;63.14;95681.69;5011038;28;20061;-69
2021/06/12 04:18:10;;;;;;;4.22;3.92;;;;;;;19.91;62.16;95667.84;5012070;28;20029;-68
2021/06/12 04:20:39;;;;;;;4.25;3.95;;;;;;;20.10;61.09;95658.22;5032869;28;20112;-69
2021/06/12 04:23:05;;;;;;;4.22;3.92;;;;;;;20.43;60.35;95685.59;5014309;28;20107;-69
2021/06/12 04:25:31;;;;;;;3.47;3.28;;;;;;;20.60;59.16;95676.31;5022531;28;20098;-69
2021/06/12 04:27:56;;;;;;;4.15;3.75;;;;;;;20.86;58.67;95688.41;5009684;28;20471;-69
2021/06/12 04:30:22;;;;;;;3.95;3.58;;;;;;;21.07;57.84;95682.63;5012932;28;20026;-69
2021/06/12 04:32:47;;;;;;;4.10;3.70;;;;;;;21.23;57.38;95681.41;5032314;28;20064;-69
2021/06/12 04:35:14;;;;;;;3.92;3.63;;;;;;;21.39;56.67;95672.44;5013488;28;20042;-69
2021/06/12 04:37:43;;;;;;;3.83;3.53;;;;;;;21.56;56.36;95673.88;5010680;28;20033;-69
2021/06/12 04:40:10;;;;;;;4.03;3.72;;;;;;;21.78;55.90;95673.09;5009731;28;20464;-69
2021/06/12 04:42:36;;;;;;;3.95;3.60;;;;;;;21.94;55.05;95662.09;5010502;28;20192;-67
2021/06/12 04:45:02;;;;;;;6.50;4.10;;;;;;;22.30;54.24;95672.34;5012223;28;20115;-69
2021/06/12 04:47:27;;;;;;;3.90;3.45;;;;;;;22.47;53.35;95672.94;5030140;28;20072;-69
2021/06/12 04:49:53;;;;;;;4.32;3.95;;;;;;;22.70;53.05;95657.38;5015871;28;20112;-69
2021/06/12 04:52:18;;;;;;;3.90;3.40;;;;;;;22.94;51.47;95663.50;5011773;28;20029;-69
2021/06/12 04:54:43;;;;;;;3.63;2.97;;;;;;;23.06;50.83;95661.28;5025044;28;20034;-69
2021/06/12 04:57:09;;;;;;;4.15;3.83;;;;;;;23.36;51.13;95682.16;5010633;28;20029;-68
2021/06/12 04:59:34;;;;;;;3.47;3.28;;;;;;;23.54;49.48;95680.38;5011852;28;20022;-68
2021/06/12 05:01:59;;;;;;;3.85;3.55;;;;;;;23.70;49.54;95680.19;5026133;28;20084;-69
2021/06/12 05:04:25;;;;;;;3.90;3.60;;;;;;;23.82;49.34;95671.72;5018810;28;20048;-70
2021/06/12 05:06:50;;;;;;;4.55;3.67;;;;;;;23.94;48.84;95667.94;5010399;28;20068;-69
2021/06/12 05:09:15;;;;;;;3.33;3.13;;;;;;;24.06;48.44;95672.31;5010461;28;20030;-70
2021/06/12 05:11:41;;;;;;;3.85;3.25;;;;;;;24.13;48.44;95670.41;5012193;28;20041;-68
2021/06/12 05:14:06;;;;;;;4.25;3.42;;;;;;;24.30;48.24;95685.25;5025949;28;20407;-69
2021/06/12 05:16:36;;;;;;;4.00;3.60;;;;;;;24.35;47.61;95692.28;5011757;28;20030;-69
2021/06/12 05:19:01;;;;;;;3.58;3.15;;;;;;;24.40;48.07;95683.78;5008716;28;20129;-69
2021/06/12 05:21:27;;;;;;;3.53;3.30;;;;;;;24.22;47.78;95656.50;5010152;28;20172;-71
2021/06/12 05:23:53;;;;;;;4.28;3.45;;;;;;;24.47;47.73;95681.13;5011417;28;20034;-72
2021/06/12 05:26:19;;;;;;;4.78;3.45;;;;;;;24.64;47.72;95690.53;5010135;28;20038;-72
2021/06/12 05:28:44;;;;;;;4.13;3.50;;;;;;;24.63;47.60;95689.00;5024759;28;20099;-72
2021/06/12 05:31:10;;;;;;;4.15;3.53;;;;;;;24.49;47.60;95664.44;5002197;28;20046;-70
2021/06/12 05:33:35;;;;;;;3.53;3.33;;;;;;;24.60;47.50;95665.25;5011861;28;20091;-69
2021/06/12 05:36:02;;;;;;;4.32;3.92;;;;;;;24.80;46.98;95685.56;5031531;28;20109;-69
2021/06/12 05:38:27;;;;;;;3.88;3.58;;;;;;;24.88;46.85;95689.09;5010118;28;20049;-68
2021/06/12 05:40:54;;;;;;;3.75;3.45;;;;;;;24.82;46.91;95671.56;5024722;28;20033;-71
2021/06/12 05:43:19;;;;;;;3.60;3.28;;;;;;;24.98;45.65;95696.53;5016338;28;20046;-78
2021/06/12 05:45:45;;;;;;;4.00;3.70;;;;;;;24.52;45.67;95661.75;5006982;28;20095;-74
2021/06/12 05:48:11;;;;;;;3.42;3.22;;;;;;;24.89;45.55;95683.28;5010748;28;20495;-72
2021/06/12 05:50:36;;;;;;;4.70;3.42;;;;;;;24.77;45.02;95670.00;5034389;28;20033;-74
2021/06/12 05:53:02;;;;;;;3.97;3.78;;;;;;;24.56;44.55;95676.13;5012746;28;20038;-78
2021/06/12 05:55:27;;;;;;;3.55;3.35;;;;;;;24.85;45.31;95698.78;5011143;28;20042;-77
2021/06/12 05:57:53;;;;;;;3.83;3.53;;;;;;;24.96;45.78;95704.28;5016398;28;20034;-71
2021/06/12 06:00:19;;;;;;;3.30;3.10;;;;;;;25.05;46.13;95704.72;5026830;28;20033;-77
2021/06/12 06:02:44;;;;;;;5.15;4.60;;;;;;;24.87;45.94;95682.84;5010234;28;20034;-64
2021/06/12 06:05:10;;;;;;;3.70;3.40;;;;;;;25.17;45.50;95700.88;5008860;28;20050;-64
2021/06/12 06:07:35;;;;;;;3.45;3.25;;;;;;;25.17;45.35;95700.88;5007747;28;20041;-66
2021/06/12 06:10:01;;;;;;;4.00;3.75;;;;;;;24.92;45.30;95687.16;5007824;28;20038;-66
2021/06/12 06:12:29;;;;;;;5.28;3.75;;;;;;;24.34;45.78;95699.66;5011762;28;20040;-69
2021/06/12 06:14:54;;;;;;;4.30;4.00;;;;;;;24.54;45.52;95702.16;5022365;28;20125;-69
2021/06/12 06:17:20;;;;;;;5.13;3.90;;;;;;;24.62;45.89;95692.88;5010201;28;20149;-71
2021/06/12 06:19:45;;;;;;;4.13;3.83;;;;;;;23.98;47.09;95704.06;5009368;28;20045;-66
2021/06/12 06:22:11;;;;;;;4.60;4.20;;;;;;;24.31;47.65;95689.56;5002295;28;20567;-69
2021/06/12 06:24:36;;;;;;;4.28;4.05;;;;;;;23.83;46.76;95705.88;5009091;28;20048;-68
2021/06/12 06:27:02;;;;;;;5.63;4.75;;;;;;;22.57;48.78;95648.72;5025873;28;20026;-67
2021/06/12 06:29:27;;;;;;;6.32;4.05;;;;;;;23.59;47.62;95700.97;5008559;28;20451;-66
2021/06/12 06:31:53;;;;;;;5.30;4.93;;;;;;;23.68;47.35;95689.84;5008521;28;20092;-66
2021/06/12 06:34:18;;;;;;;5.18;4.65;;;;;;;23.84;47.35;95685.72;5007717;28;20133;-74
2021/06/12 06:36:44;;;;;;;5.75;5.15;;;;;;;24.25;47.54;95706.59;5007432;28;20113;-75
2021/06/12 06:39:09;;;;;;;4.90;4.53;;;;;;;23.98;47.50;95697.84;5008993;28;20037;-74
2021/06/12 06:41:35;;;;;;;4.40;4.03;;;;;;;23.82;47.46;95685.31;5009226;28;20022;-75
2021/06/12 06:44:00;;;;;;;4.60;4.05;;;;;;;23.94;47.23;95678.03;5008268;28;20386;-76
2021/06/12 06:46:25;;;;;;;4.40;3.78;;;;;;;24.31;46.56;95681.41;5010662;28;20033;-75
2021/06/12 06:48:51;;;;;;;4.97;4.30;;;;;;;24.12;46.46;95670.78;5022796;28;20034;-77
2021/06/12 06:51:16;;;;;;;4.15;3.85;;;;;;;24.06;46.27;95697.53;5011189;28;20030;-75
2021/06/12 06:53:42;;;;;;;6.57;4.22;;;;;;;23.94;46.30;95700.53;5012206;28;20044;-70
2021/06/12 06:56:08;;;;;;;5.00;4.60;;;;;;;24.14;46.01;95701.06;5011406;28;20512;-69
2021/06/12 06:58:34;;;;;;;4.80;4.50;;;;;;;23.86;44.72;95679.91;5008359;28;20034;-73
2021/06/12 07:00:59;;;;;;;4.72;4.30;;;;;;;23.89;46.81;95702.81;5006590;28;20053;-72
2021/06/12 07:03:25;;;;;;;4.95;4.50;;;;;;;23.22;47.13;95650.22;5008734;28;20137;-64
2021/06/12 07:05:53;;;;;;;7.38;4.38;;;;;;;23.69;45.75;95683.25;5015518;28;20145;-69
2021/06/12 07:08:18;;;;;;;4.63;4.32;;;;;;;24.05;46.44;95700.63;5014921;28;20176;-64
2021/06/12 07:10:44;;;;;;;5.07;4.63;;;;;;;24.53;45.49;95711.47;5008856;28;20120;-63
2021/06/12 07:13:10;;;;;;;4.22;3.83;;;;;;;23.52;46.76;95701.69;5007961;28;20123;-64
2021/06/12 07:15:35;;;;;;;5.13;4.50;;;;;;;23.71;46.81;95698.03;5009515;28;20049;-64
2021/06/12 07:18:01;;;;;;;4.88;4.50;;;;;;;23.72;46.81;95706.97;5014090;28;20018;-70
2021/06/12 07:20:26;;;;;;;6.03;4.20;;;;;;;23.28;47.39;95704.94;5012065;28;20129;-66
2021/06/12 07:22:52;;;;;;;4.78;4.38;;;;;;;22.81;48.75;95696.25;5011950;28;20037;-66
2021/06/12 07:25:18;;;;;;;4.30;3.90;;;;;;;23.40;48.01;95717.50;5010837;28;20034;-73
2021/06/12 07:27:44;;;;;;;5.20;4.80;;;;;;;22.95;49.55;95687.53;5010612;28;20061;-69
2021/06/12 07:30:10;;;;;;;4.85;4.45;;;;;;;23.57;48.04;95692.44;5009625;28;20400;-74
2021/06/12 07:32:35;;;;;;;4.57;4.28;;;;;;;24.32;46.66;95682.97;5012457;28;20026;-77
2021/06/12 07:35:01;;;;;;;4.90;4.60;;;;;;;23.46;46.93;95637.25;5011439;28;20034;-84
2021/06/12 07:37:26;;;;;;;4.95;4.63;;;;;;;23.23;47.16;95619.19;5014426;28;20045;-71
2021/06/12 07:39:52;;;;;;;4.63;4.05;;;;;;;23.51;47.19;95580.69;5025182;28;20415;-70
2021/06/12 07:42:18;;;;;;;4.90;4.50;;;;;;;24.18;46.42;95642.09;5010949;28;20029;-71
2021/06/12 07:44:43;;;;;;;4.45;4.15;;;;;;;24.64;45.27;95638.84;5032380;28;20119;-70
2021/06/12 07:47:09;;;;;;;4.95;4.53;;;;;;;23.73;46.44;95665.06;5013968;28;20439;-70
2021/06/12 07:49:35;;;;;;;5.43;4.35;;;;;;;24.62;46.09;95687.44;5023468;28;20048;-69
2021/06/12 07:52:00;;;;;;;5.07;4.68;;;;;;;25.00;45.34;95664.25;5023912;28;20038;-66
2021/06/12 07:54:26;;;;;;;4.82;4.35;;;;;;;25.07;44.81;95688.00;5011282;28;20465;-68
2021/06/12 07:56:52;;;;;;;4.78;4.47;;;;;;;24.88;44.91;95670.84;5013795;28;20029;-74
2021/06/12 07:59:18;;;;;;;5.32;4.93;;;;;;;23.74;45.86;95697.25;5010103;28;20053;-69
2021/06/12 08:01:43;;;;;;;4.97;4.57;;;;;;;24.16;46.81;95685.19;5016960;28;20038;-68
2021/06/12 08:04:10;;;;;;;5.38;4.97;;;;;;;24.07;46.16;95690.94;5010923;28;20403;-68
2021/06/12 08:06:36;;;;;;;5.20;4.80;;;;;;;24.84;45.45;95686.34;5010153;28;20123;-67
2021/06/12 08:09:01;;;;;;;5.20;4.75;;;;;;;25.47;44.42;95686.19;5013214;28;20117;-70
2021/06/12 08:11:27;;;;;;;4.85;4.45;;;;;;;25.51;43.48;95684.25;5011437;28;20038;-71
2021/06/12 08:13:53;;;;;;;4.93;4.55;;;;;;;25.95;42.50;95680.38;5010718;28;20046;-70
2021/06/12 08:16:18;;;;;;;4.95;4.55;;;;;;;24.72;44.81;95697.59;4992384;28;20156;-70
2021/06/12 08:18:43;;;;;;;4.85;4.45;;;;;;;24.77;43.74;95672.75;5011082;28;20060;-65
2021/06/12 08:21:09;;;;;;;11.98;8.27;;;;;;;25.73;44.06;95685.03;5011197;28;20025;-65
2021/06/12 08:23:37;;;;;;;4.75;4.32;;;;;;;26.37;41.68;95679.59;5012554;28;20037;-65
2021/06/12 08:26:03;;;;;;;5.68;5.10;;;;;;;25.55;42.34;95687.75;5011067;28;20069;-64
2021/06/12 08:28:28;;;;;;;5.90;5.30;;;;;;;25.74;42.67;95681.13;5021824;28;20083;-64
2021/06/12 08:30:54;;;;;;;5.22;4.47;;;;;;;26.28;41.35;95677.25;5017455;28;20034;-65
2021/06/12 08:33:20;;;;;;;6.47;4.75;;;;;;;26.90;41.02;95675.94;5010244;28;20030;-67
2021/06/12 08:35:45;;;;;;;5.05;4.53;;;;;;;25.96;41.40;95684.69;5011010;28;20040;-66
2021/06/12 08:38:11;;;;;;;6.60;6.10;;;;;;;26.37;41.75;95679.59;5011255;28;20045;-73
2021/06/12 08:40:36;;;;;;;5.60;5.10;;;;;;;26.10;41.78;95671.03;5011328;28;20042;-71
2021/06/12 08:43:05;;;;;;;5.40;5.00;;;;;;;25.79;42.11;95684.28;5010622;28;20049;-69
2021/06/12 08:45:31;;;;;;;4.68;4.38;;;;;;;26.43;41.66;95678.03;5010185;28;20073;-72
2021/06/12 08:47:58;;;;;;;4.90;4.50;;;;;;;27.15;40.75;95673.13;5012625;28;20057;-77
2021/06/12 08:50:26;;;;;;;5.38;4.97;;;;;;;25.87;40.13;95683.13;5011090;28;20100;-72
2021/06/12 08:52:53;;;;;;;5.80;5.38;;;;;;;25.43;42.26;95691.59;5009067;28;20443;-67
2021/06/12 08:55:20;;;;;;;5.80;5.20;;;;;;;25.73;40.89;95649.63;5010578;28;20041;-65
2021/06/12 08:57:46;;;;;;;4.97;4.57;;;;;;;25.59;41.43;95666.72;5010836;28;20057;-76
2021/06/12 09:00:13;;;;;;;4.50;4.30;;;;;;;25.73;41.52;95687.75;5010393;28;20117;-71
2021/06/12 09:03:11;;;;;;;5.20;4.70;;;;;;;26.07;41.34;95682.72;5011741;28;20060;-72
2021/06/12 09:05:48;;;;;;;4.97;4.57;;;;;;;27.18;38.66;95680.53;5009296;28;20059;-71
2021/06/12 09:08:15;;;;;;;5.90;4.50;;;;;;;27.22;38.08;95684.00;5009092;28;20061;-71
2021/06/12 09:10:45;;;;;;;5.40;5.10;;;;;;;26.26;39.50;95665.16;5010187;28;20492;-72
2021/06/12 09:13:11;;;;;;;5.85;5.38;;;;;;;25.00;41.46;95685.25;5018590;28;20048;-72
2021/06/12 09:15:37;;;;;;;4.78;4.38;;;;;;;24.93;41.31;95674.31;5025045;28;20124;-77
2021/06/12 09:18:03;;;;;;;5.55;5.22;;;;;;;25.15;40.83;95643.34;5001688;28;20028;-72
2021/06/12 09:20:29;;;;;;;5.50;5.00;;;;;;;26.35;40.43;95693.59;5010040;28;20038;-69
2021/06/12 09:23:17;;;;;;;5.22;4.93;;;;;;;26.72;40.01;95692.38;5009681;28;20034;-68
2021/06/12 09:25:45;;;;;;;5.63;5.22;;;;;;;26.21;41.03;95680.00;5007406;28;20438;-73
2021/06/12 09:28:11;;;;;;;5.10;4.60;;;;;;;26.57;39.88;95691.66;5007776;28;20129;-72
2021/06/12 09:30:36;;;;;;;6.22;4.93;;;;;;;27.01;37.76;95686.78;5009545;28;20125;-70
2021/06/12 09:33:02;;;;;;;5.03;4.63;;;;;;;27.67;36.66;95679.41;5010676;28;20080;-72
2021/06/12 09:35:34;;;;;;;5.43;5.13;;;;;;;28.40;36.69;95681.19;5009839;28;20073;-72
2021/06/12 09:38:01;;;;;;;5.22;4.93;;;;;;;27.19;38.59;95688.31;5024741;28;20033;-71
2021/06/12 09:40:31;;;;;;;5.47;4.97;;;;;;;26.66;39.00;95677.56;5027468;28;20037;-71
2021/06/12 09:43:00;;;;;;;4.43;4.15;;;;;;;25.65;40.08;95693.22;5027620;28;20069;-72
2021/06/12 09:45:28;;;;;;;9.70;4.75;;;;;;;25.33;40.89;95681.47;5028805;28;20049;-71
2021/06/12 09:48:15;;;;;;;5.45;5.15;;;;;;;25.11;41.43;95661.59;5030915;28;20056;-72
2021/06/12 09:50:42;;;;;;;4.85;4.60;;;;;;;25.81;40.62;95662.09;5029636;28;20036;-71
2021/06/12 09:53:20;;;;;;;7.70;5.05;;;;;;;25.01;41.70;95684.84;5028589;28;20045;-79
2021/06/12 09:55:47;;;;;;;5.50;4.32;;;;;;;25.72;39.74;95683.47;5011816;28;20045;-70
2021/06/12 09:58:14;;;;;;;4.90;4.60;;;;;;;26.41;38.89;95674.88;5028851;28;20128;-72
2021/06/12 10:00:41;;;;;;;4.50;4.10;;;;;;;26.69;37.67;95668.59;5028816;28;20052;-76
2021/06/12 10:03:20;;;;;;;4.70;4.40;;;;;;;26.75;38.83;95649.88;5028802;28;20017;-75
2021/06/12 10:05:46;;;;;;;5.97;4.32;;;;;;;27.14;37.08;95645.03;5030767;28;20025;-75
2021/06/12 10:08:16;;;;;;;4.13;3.83;;;;;;;26.53;38.99;95682.69;5029531;28;20124;-78
2021/06/12 10:10:49;;;;;;;4.30;4.00;;;;;;;26.15;38.55;95695.94;5010908;28;20068;-70
2021/06/12 10:13:16;;;;;;;4.70;4.40;;;;;;;25.25;40.49;95644.53;5018379;28;20046;-68
2021/06/12 10:15:42;;;;;;;4.82;4.50;;;;;;;25.10;41.23;95674.44;4992800;28;20050;-73
2021/06/12 10:18:08;;;;;;;4.20;3.90;;;;;;;26.26;39.85;95674.16;5007152;28;20032;-74
2021/06/12 10:20:34;;;;;;;4.43;4.05;;;;;;;26.40;39.87;95678.78;5011632;28;20117;-70
2021/06/12 10:23:01;;;;;;;4.38;4.07;;;;;;;25.76;41.79;95678.84;5023992;28;20144;-69
2021/06/12 10:25:28;;;;;;;3.80;3.60;;;;;;;25.36;40.94;95684.22;5028300;28;20045;-69
2021/06/12 10:27:54;;;;;;;4.85;3.80;;;;;;;26.13;40.46;95676.50;5028346;28;20037;-70
2021/06/12 10:30:23;;;;;;;4.20;3.90;;;;;;;25.75;40.80;95669.91;5027960;28;20602;-71
2021/06/12 10:32:51;;;;;;;4.68;3.90;;;;;;;26.08;39.65;95618.84;5029354;28;20026;-70
2021/06/12 10:35:19;;;;;;;3.05;2.85;;;;;;;26.04;38.35;95676.09;5028290;28;20487;-70
2021/06/12 10:38:01;;;;;;;3.33;3.03;;;;;;;26.52;37.82;95667.50;5028428;28;20025;-71
2021/06/12 10:40:36;;;;;;;3.33;2.78;;;;;;;25.89;38.32;95666.38;5028237;28;20037;-70
2021/06/12 10:43:14;;;;;;;3.95;2.85;;;;;;;27.03;37.57;95657.16;5027775;28;20041;-75
2021/06/12 10:45:42;;;;;;;3.42;3.00;;;;;;;26.10;39.93;95663.66;5010170;28;20129;-68
2021/06/12 10:48:08;;;;;;;3.35;3.15;;;;;;;25.04;40.49;95607.13;5027766;28;20471;-70
2021/06/12 10:50:42;;;;;;;3.28;3.08;;;;;;;25.31;41.16;95670.97;5029760;28;20021;-71
2021/06/12 10:53:22;;;;;;;3.28;3.08;;;;;;;25.79;40.18;95669.88;5027772;28;20491;-76
2021/06/12 10:55:53;;;;;;;4.07;2.60;;;;;;;26.04;40.07;95657.03;5028340;28;20040;-74
2021/06/12 10:58:34;;;;;;;4.78;3.00;;;;;;;25.71;39.98;95676.47;5018125;28;20125;-73
2021/06/12 11:01:17;;;;;;;3.88;2.67;;;;;;;25.74;38.88;95643.75;5008180;28;20124;-74
2021/06/12 11:03:52;;;;;;;3.97;3.25;;;;;;;25.57;40.90;95666.34;5004787;28;20037;-74
2021/06/12 11:06:48;;;;;;;3.25;3.05;;;;;;;26.66;38.93;95648.31;5008630;28;20043;-74
2021/06/12 11:09:20;;;;;;;3.10;2.80;;;;;;;26.81;38.29;95656.47;5010015;28;20118;-75
2021/06/12 11:11:50;;;;;;;3.05;2.80;;;;;;;26.68;38.53;95656.13;5012625;28;20391;-76
2021/06/12 11:14:22;;;;;;;3.35;3.05;;;;;;;27.51;37.41;95651.03;5027994;28;20029;-76
2021/06/12 11:17:09;;;;;;;3.72;2.85;;;;;;;27.06;37.42;95648.16;5027582;28;20051;-75
2021/06/12 11:19:35;;;;;;;3.20;2.55;;;;;;;26.68;38.04;95651.44;5010656;28;20545;-74
2021/06/12 11:22:25;;;;;;;3.53;3.22;;;;;;;25.79;39.62;95662.47;5028494;28;20140;-76
2021/06/12 11:24:58;;;;;;;3.35;3.05;;;;;;;26.11;39.71;95648.84;5028158;28;20560;-76
2021/06/12 11:27:28;;;;;;;3.25;2.90;;;;;;;26.14;40.08;95639.88;5010587;28;20123;-77
2021/06/12 11:30:23;;;;;;;3.80;2.90;;;;;;;25.87;39.28;95636.78;5030145;28;20757;-72
2021/06/12 11:32:58;;;;;;;8.55;2.92;;;;;;;25.66;39.38;95647.66;5005332;28;20046;-75
2021/06/12 11:35:47;;;;;;;3.15;2.88;;;;;;;26.00;35.64;95641.84;5007093;28;20500;-76
2021/06/12 11:38:21;;;;;;;6.13;2.88;;;;;;;27.03;34.09;95632.59;5008582;28;20068;-75